sensor_id;sensor_type;location;lat;lon;timestamp;pressure;altitude;pressure_sealevel;temperature;humidity
64141;BME280;50436;50.618;7.932;2022-12-28T00:01:16;96950.03;;;2.09;100.00
64141;BME280;50436;50.618;7.932;2022-12-28T00:04:04;96944.84;;;2.16;100.00
64141;BME280;50436;50.618;7.932;2022-12-28T00:06:53;96931.09;;;2.20;100.00
64141;BME280;50436;50.618;7.932;2022-12-28T00:09:39;96923.00;;;2.22;100.00
64141;BME280;50436;50.618;7.932;2022-12-28T00:12:25;96916.69;;;2.23;100.00
64141;BME280;50436;50.618;7.932;2022-12-28T00:15:11;96911.78;;;2.20;100.00
64141;BME280;50436;50.618;7.932;2022-12-28T00:17:56;96899.31;;;2.14;100.00
64141;BME280;50436;50.618;7.932;2022-12-28T00:20:42;96909.34;;;2.18;100.00
64141;BME280;50436;50.618;7.932;2022-12-28T00:23:29;96892.50;;;2.05;100.00
64141;BME280;50436;50.618;7.932;2022-12-28T00:26:15;96888.75;;;2.14;100.00
64141;BME280;50436;50.618;7.932;2022-12-28T00:29:01;96880.56;;;2.09;100.00
64141;BME280;50436;50.618;7.932;2022-12-28T00:31:47;96874.19;;;2.18;100.00
64141;BME280;50436;50.618;7.932;2022-12-28T00:34:33;96861.53;;;2.13;100.00
64141;BME280;50436;50.618;7.932;2022-12-28T00:37:20;96856.56;;;2.04;100.00
64141;BME280;50436;50.618;7.932;2022-12-28T00:40:06;96849.00;;;2.01;100.00
64141;BME280;50436;50.618;7.932;2022-12-28T00:42:52;96841.47;;;1.98;100.00
64141;BME280;50436;50.618;7.932;2022-12-28T00:45:37;96849.81;;;2.01;100.00
64141;BME280;50436;50.618;7.932;2022-12-28T00:48:24;96849.28;;;2.06;100.00
64141;BME280;50436;50.618;7.932;2022-12-28T00:51:18;96835.34;;;2.12;100.00
64141;BME280;50436;50.618;7.932;2022-12-28T00:54:03;96842.78;;;2.08;100.00
64141;BME280;50436;50.618;7.932;2022-12-28T00:56:49;96832.44;;;2.07;100.00
64141;BME280;50436;50.618;7.932;2022-12-28T00:59:35;96829.41;;;2.10;100.00
64141;BME280;50436;50.618;7.932;2022-12-28T01:02:21;96826.59;;;2.11;100.00
64141;BME280;50436;50.618;7.932;2022-12-28T01:05:08;96823.97;;;2.11;100.00
64141;BME280;50436;50.618;7.932;2022-12-28T01:07:55;96829.88;;;2.13;100.00
64141;BME280;50436;50.618;7.932;2022-12-28T01:10:41;96826.69;;;2.18;100.00
64141;BME280;50436;50.618;7.932;2022-12-28T01:13:28;96815.59;;;2.29;100.00
64141;BME280;50436;50.618;7.932;2022-12-28T01:16:22;96814.03;;;2.35;100.00
64141;BME280;50436;50.618;7.932;2022-12-28T01:19:11;96816.84;;;2.33;100.00
64141;BME280;50436;50.618;7.932;2022-12-28T01:22:00;96821.03;;;2.42;100.00
64141;BME280;50436;50.618;7.932;2022-12-28T01:24:46;96827.31;;;2.41;100.00
64141;BME280;50436;50.618;7.932;2022-12-28T01:27:31;96835.28;;;2.48;100.00
64141;BME280;50436;50.618;7.932;2022-12-28T01:30:18;96841.50;;;2.40;100.00
64141;BME280;50436;50.618;7.932;2022-12-28T01:33:03;96841.16;;;2.43;100.00
64141;BME280;50436;50.618;7.932;2022-12-28T01:35:49;96841.91;;;2.37;100.00
64141;BME280;50436;50.618;7.932;2022-12-28T01:38:36;96818.38;;;2.42;100.00
64141;BME280;50436;50.618;7.932;2022-12-28T01:41:23;96803.41;;;2.28;100.00
64141;BME280;50436;50.618;7.932;2022-12-28T01:46:59;96804.91;;;2.16;100.00
64141;BME280;50436;50.618;7.932;2022-12-28T01:49:58;96802.44;;;2.14;100.00
64141;BME280;50436;50.618;7.932;2022-12-28T01:52:59;96808.00;;;2.19;100.00
64141;BME280;50436;50.618;7.932;2022-12-28T01:55:48;96801.44;;;2.15;100.00
64141;BME280;50436;50.618;7.932;2022-12-28T01:58:34;96790.81;;;2.09;100.00
64141;BME280;50436;50.618;7.932;2022-12-28T02:01:20;96779.06;;;2.11;100.00
64141;BME280;50436;50.618;7.932;2022-12-28T02:04:07;96776.97;;;2.07;100.00
64141;BME280;50436;50.618;7.932;2022-12-28T02:06:53;96775.97;;;2.08;100.00
64141;BME280;50436;50.618;7.932;2022-12-28T02:09:41;96765.59;;;2.06;100.00
64141;BME280;50436;50.618;7.932;2022-12-28T02:12:28;96762.03;;;2.14;100.00
64141;BME280;50436;50.618;7.932;2022-12-28T02:15:14;96760.53;;;2.05;100.00
64141;BME280;50436;50.618;7.932;2022-12-28T02:18:01;96754.63;;;2.03;100.00
64141;BME280;50436;50.618;7.932;2022-12-28T02:24:17;96753.63;;;2.04;100.00
64141;BME280;50436;50.618;7.932;2022-12-28T02:27:24;96751.59;;;2.06;100.00
64141;BME280;50436;50.618;7.932;2022-12-28T02:30:17;96757.50;;;2.08;100.00
64141;BME280;50436;50.618;7.932;2022-12-28T02:36:06;96749.03;;;2.12;100.00
64141;BME280;50436;50.618;7.932;2022-12-28T02:39:19;96747.41;;;2.11;100.00
64141;BME280;50436;50.618;7.932;2022-12-28T02:42:08;96753.59;;;2.25;100.00
64141;BME280;50436;50.618;7.932;2022-12-28T02:44:55;96745.50;;;2.27;100.00
64141;BME280;50436;50.618;7.932;2022-12-28T02:48:00;96733.75;;;2.29;100.00
64141;BME280;50436;50.618;7.932;2022-12-28T02:54:52;96715.53;;;2.13;100.00
64141;BME280;50436;50.618;7.932;2022-12-28T03:01:47;96681.53;;;2.03;100.00
64141;BME280;50436;50.618;7.932;2022-12-28T03:05:03;96691.63;;;2.00;100.00
64141;BME280;50436;50.618;7.932;2022-12-28T03:07:58;96691.44;;;2.01;100.00
64141;BME280;50436;50.618;7.932;2022-12-28T03:11:09;96683.09;;;1.98;100.00
64141;BME280;50436;50.618;7.932;2022-12-28T03:14:05;96680.44;;;1.98;100.00
64141;BME280;50436;50.618;7.932;2022-12-28T03:16:53;96676.72;;;1.92;100.00
64141;BME280;50436;50.618;7.932;2022-12-28T03:20:07;96661.91;;;1.91;100.00
64141;BME280;50436;50.618;7.932;2022-12-28T03:23:16;96652.78;;;1.93;100.00
64141;BME280;50436;50.618;7.932;2022-12-28T03:26:22;96658.72;;;1.95;100.00
64141;BME280;50436;50.618;7.932;2022-12-28T03:29:28;96664.53;;;1.91;100.00
64141;BME280;50436;50.618;7.932;2022-12-28T03:32:36;96648.50;;;1.92;100.00
64141;BME280;50436;50.618;7.932;2022-12-28T03:35:28;96639.78;;;1.92;100.00
64141;BME280;50436;50.618;7.932;2022-12-28T03:38:25;96650.59;;;1.97;100.00
64141;BME280;50436;50.618;7.932;2022-12-28T03:41:40;96642.88;;;1.95;100.00
64141;BME280;50436;50.618;7.932;2022-12-28T03:44:49;96640.09;;;2.04;100.00
64141;BME280;50436;50.618;7.932;2022-12-28T03:47:37;96637.31;;;2.12;100.00
64141;BME280;50436;50.618;7.932;2022-12-28T03:50:25;96633.06;;;2.11;100.00
64141;BME280;50436;50.618;7.932;2022-12-28T03:53:11;96619.41;;;2.07;100.00
64141;BME280;50436;50.618;7.932;2022-12-28T03:56:13;96620.06;;;2.16;100.00
64141;BME280;50436;50.618;7.932;2022-12-28T03:59:00;96617.38;;;2.09;100.00
64141;BME280;50436;50.618;7.932;2022-12-28T04:01:55;96611.69;;;2.06;100.00
64141;BME280;50436;50.618;7.932;2022-12-28T04:04:41;96609.91;;;2.13;100.00
64141;BME280;50436;50.618;7.932;2022-12-28T04:07:29;96603.38;;;2.09;100.00
64141;BME280;50436;50.618;7.932;2022-12-28T04:10:15;96597.47;;;2.07;100.00
64141;BME280;50436;50.618;7.932;2022-12-28T04:13:03;96603.19;;;2.10;100.00
64141;BME280;50436;50.618;7.932;2022-12-28T04:16:10;96595.91;;;2.12;100.00
64141;BME280;50436;50.618;7.932;2022-12-28T04:18:57;96602.81;;;2.13;100.00
64141;BME280;50436;50.618;7.932;2022-12-28T04:21:43;96593.88;;;2.14;100.00
64141;BME280;50436;50.618;7.932;2022-12-28T04:24:29;96597.78;;;2.25;100.00
64141;BME280;50436;50.618;7.932;2022-12-28T04:27:15;96602.16;;;2.39;100.00
64141;BME280;50436;50.618;7.932;2022-12-28T04:30:03;96594.88;;;2.41;100.00
64141;BME280;50436;50.618;7.932;2022-12-28T04:32:54;96584.19;;;2.56;100.00
64141;BME280;50436;50.618;7.932;2022-12-28T04:35:40;96585.47;;;2.67;100.00
64141;BME280;50436;50.618;7.932;2022-12-28T04:38:26;96576.69;;;2.60;100.00
64141;BME280;50436;50.618;7.932;2022-12-28T04:41:12;96560.22;;;2.58;100.00
64141;BME280;50436;50.618;7.932;2022-12-28T04:43:58;96566.97;;;2.67;100.00
64141;BME280;50436;50.618;7.932;2022-12-28T04:46:44;96564.78;;;2.77;100.00
64141;BME280;50436;50.618;7.932;2022-12-28T04:49:29;96573.53;;;2.77;100.00
64141;BME280;50436;50.618;7.932;2022-12-28T04:52:15;96569.88;;;2.85;100.00
64141;BME280;50436;50.618;7.932;2022-12-28T04:55:03;96560.59;;;2.96;100.00
64141;BME280;50436;50.618;7.932;2022-12-28T04:57:49;96570.34;;;2.95;100.00
64141;BME280;50436;50.618;7.932;2022-12-28T05:00:35;96564.88;;;3.03;100.00
64141;BME280;50436;50.618;7.932;2022-12-28T05:03:21;96558.97;;;3.01;100.00
64141;BME280;50436;50.618;7.932;2022-12-28T05:06:11;96543.56;;;3.18;100.00
64141;BME280;50436;50.618;7.932;2022-12-28T05:08:57;96540.13;;;3.24;100.00
64141;BME280;50436;50.618;7.932;2022-12-28T05:11:42;96547.25;;;3.24;100.00
64141;BME280;50436;50.618;7.932;2022-12-28T05:14:28;96542.19;;;3.29;100.00
64141;BME280;50436;50.618;7.932;2022-12-28T05:17:14;96540.75;;;3.33;100.00
64141;BME280;50436;50.618;7.932;2022-12-28T05:20:00;96534.44;;;3.34;100.00
64141;BME280;50436;50.618;7.932;2022-12-28T05:22:46;96528.34;;;3.40;100.00
64141;BME280;50436;50.618;7.932;2022-12-28T05:25:32;96519.59;;;3.33;100.00
64141;BME280;50436;50.618;7.932;2022-12-28T05:28:17;96514.28;;;3.33;100.00
64141;BME280;50436;50.618;7.932;2022-12-28T05:31:05;96515.91;;;3.34;100.00
64141;BME280;50436;50.618;7.932;2022-12-28T05:33:52;96516.13;;;3.32;100.00
64141;BME280;50436;50.618;7.932;2022-12-28T05:36:38;96518.78;;;3.39;100.00
64141;BME280;50436;50.618;7.932;2022-12-28T05:39:24;96523.88;;;3.47;100.00
64141;BME280;50436;50.618;7.932;2022-12-28T05:42:10;96522.66;;;3.43;100.00
64141;BME280;50436;50.618;7.932;2022-12-28T05:44:56;96523.66;;;3.49;100.00
64141;BME280;50436;50.618;7.932;2022-12-28T05:47:42;96508.44;;;3.51;100.00
64141;BME280;50436;50.618;7.932;2022-12-28T05:50:28;96502.72;;;3.54;100.00
64141;BME280;50436;50.618;7.932;2022-12-28T05:53:14;96495.38;;;3.56;100.00
64141;BME280;50436;50.618;7.932;2022-12-28T05:56:12;96496.19;;;3.56;100.00
64141;BME280;50436;50.618;7.932;2022-12-28T05:59:00;96504.34;;;3.55;100.00
64141;BME280;50436;50.618;7.932;2022-12-28T06:01:49;96497.63;;;3.66;100.00
64141;BME280;50436;50.618;7.932;2022-12-28T06:04:35;96502.53;;;3.69;100.00
64141;BME280;50436;50.618;7.932;2022-12-28T06:07:21;96498.88;;;3.76;100.00
64141;BME280;50436;50.618;7.932;2022-12-28T06:10:07;96498.88;;;3.83;100.00
64141;BME280;50436;50.618;7.932;2022-12-28T06:12:53;96488.28;;;3.89;100.00
64141;BME280;50436;50.618;7.932;2022-12-28T06:15:42;96499.25;;;4.00;100.00
64141;BME280;50436;50.618;7.932;2022-12-28T06:18:28;96493.53;;;4.09;100.00
64141;BME280;50436;50.618;7.932;2022-12-28T06:24:01;96489.41;;;4.20;100.00
64141;BME280;50436;50.618;7.932;2022-12-28T06:26:48;96484.31;;;4.25;100.00
64141;BME280;50436;50.618;7.932;2022-12-28T06:29:34;96496.75;;;4.25;100.00
64141;BME280;50436;50.618;7.932;2022-12-28T06:32:20;96480.63;;;4.33;100.00
64141;BME280;50436;50.618;7.932;2022-12-28T06:35:06;96475.97;;;4.28;100.00
64141;BME280;50436;50.618;7.932;2022-12-28T06:37:52;96462.09;;;4.33;100.00
64141;BME280;50436;50.618;7.932;2022-12-28T06:40:38;96459.03;;;4.36;100.00
64141;BME280;50436;50.618;7.932;2022-12-28T06:43:23;96449.03;;;4.38;100.00
64141;BME280;50436;50.618;7.932;2022-12-28T06:46:10;96445.13;;;4.40;100.00
64141;BME280;50436;50.618;7.932;2022-12-28T06:48:57;96449.44;;;4.35;100.00
64141;BME280;50436;50.618;7.932;2022-12-28T06:51:43;96468.19;;;4.40;100.00
64141;BME280;50436;50.618;7.932;2022-12-28T06:54:28;96457.56;;;4.40;100.00
64141;BME280;50436;50.618;7.932;2022-12-28T06:57:14;96460.41;;;4.45;100.00
64141;BME280;50436;50.618;7.932;2022-12-28T07:00:03;96452.47;;;4.45;100.00
64141;BME280;50436;50.618;7.932;2022-12-28T07:02:56;96452.25;;;4.46;100.00
64141;BME280;50436;50.618;7.932;2022-12-28T07:05:42;96445.72;;;4.49;100.00
64141;BME280;50436;50.618;7.932;2022-12-28T07:08:28;96450.63;;;4.45;100.00
64141;BME280;50436;50.618;7.932;2022-12-28T07:11:19;96448.97;;;4.51;100.00
64141;BME280;50436;50.618;7.932;2022-12-28T07:14:05;96452.03;;;4.48;100.00
64141;BME280;50436;50.618;7.932;2022-12-28T07:16:52;96439.97;;;4.59;100.00
64141;BME280;50436;50.618;7.932;2022-12-28T07:19:38;96448.13;;;4.57;100.00
64141;BME280;50436;50.618;7.932;2022-12-28T07:22:24;96441.56;;;4.66;100.00
64141;BME280;50436;50.618;7.932;2022-12-28T07:25:09;96437.94;;;4.61;100.00
64141;BME280;50436;50.618;7.932;2022-12-28T07:27:55;96446.47;;;4.63;100.00
64141;BME280;50436;50.618;7.932;2022-12-28T07:30:41;96425.50;;;4.61;100.00
64141;BME280;50436;50.618;7.932;2022-12-28T07:33:27;96434.22;;;4.68;100.00
64141;BME280;50436;50.618;7.932;2022-12-28T07:36:16;96444.03;;;4.68;100.00
64141;BME280;50436;50.618;7.932;2022-12-28T07:39:02;96427.72;;;4.64;100.00
64141;BME280;50436;50.618;7.932;2022-12-28T07:41:48;96443.81;;;4.69;100.00
64141;BME280;50436;50.618;7.932;2022-12-28T07:44:40;96448.50;;;4.67;100.00
64141;BME280;50436;50.618;7.932;2022-12-28T07:47:26;96447.44;;;4.75;100.00
64141;BME280;50436;50.618;7.932;2022-12-28T07:50:12;96432.75;;;4.72;100.00
64141;BME280;50436;50.618;7.932;2022-12-28T07:52:59;96422.72;;;4.81;100.00
64141;BME280;50436;50.618;7.932;2022-12-28T07:55:54;96447.03;;;4.71;100.00
64141;BME280;50436;50.618;7.932;2022-12-28T07:58:40;96446.00;;;4.79;100.00
64141;BME280;50436;50.618;7.932;2022-12-28T08:01:29;96435.38;;;4.79;100.00
64141;BME280;50436;50.618;7.932;2022-12-28T08:04:16;96426.19;;;4.82;100.00
64141;BME280;50436;50.618;7.932;2022-12-28T08:07:02;96419.69;;;4.78;100.00
64141;BME280;50436;50.618;7.932;2022-12-28T08:09:48;96416.59;;;4.81;100.00
64141;BME280;50436;50.618;7.932;2022-12-28T08:12:34;96425.59;;;4.80;100.00
64141;BME280;50436;50.618;7.932;2022-12-28T08:15:19;96429.28;;;4.79;100.00
64141;BME280;50436;50.618;7.932;2022-12-28T08:18:05;96433.72;;;4.85;100.00
64141;BME280;50436;50.618;7.932;2022-12-28T08:20:51;96419.00;;;4.89;100.00
64141;BME280;50436;50.618;7.932;2022-12-28T08:23:40;96421.47;;;4.90;100.00
64141;BME280;50436;50.618;7.932;2022-12-28T08:26:29;96431.66;;;4.87;100.00
64141;BME280;50436;50.618;7.932;2022-12-28T08:29:18;96424.50;;;4.94;100.00
64141;BME280;50436;50.618;7.932;2022-12-28T08:32:04;96422.28;;;4.91;100.00
64141;BME280;50436;50.618;7.932;2022-12-28T08:34:50;96424.50;;;4.94;100.00
64141;BME280;50436;50.618;7.932;2022-12-28T08:37:36;96423.84;;;4.98;100.00
64141;BME280;50436;50.618;7.932;2022-12-28T08:40:22;96433.25;;;4.94;100.00
64141;BME280;50436;50.618;7.932;2022-12-28T08:43:12;96423.84;;;4.98;100.00
64141;BME280;50436;50.618;7.932;2022-12-28T08:48:56;96423.66;;;5.00;100.00
64141;BME280;50436;50.618;7.932;2022-12-28T08:51:42;96432.81;;;4.97;100.00
64141;BME280;50436;50.618;7.932;2022-12-28T08:54:28;96420.94;;;5.07;100.00
64141;BME280;50436;50.618;7.932;2022-12-28T08:57:14;96432.97;;;5.09;100.00
64141;BME280;50436;50.618;7.932;2022-12-28T09:00:00;96437.88;;;5.06;100.00
64141;BME280;50436;50.618;7.932;2022-12-28T09:02:47;96438.09;;;5.04;100.00
64141;BME280;50436;50.618;7.932;2022-12-28T09:05:36;96435.41;;;5.11;100.00
64141;BME280;50436;50.618;7.932;2022-12-28T09:08:22;96432.38;;;5.07;100.00
64141;BME280;50436;50.618;7.932;2022-12-28T09:11:11;96425.78;;;5.16;100.00
64141;BME280;50436;50.618;7.932;2022-12-28T09:13:57;96434.13;;;5.13;100.00
64141;BME280;50436;50.618;7.932;2022-12-28T09:16:43;96436.66;;;5.08;100.00
64141;BME280;50436;50.618;7.932;2022-12-28T09:19:29;96438.63;;;5.13;100.00
64141;BME280;50436;50.618;7.932;2022-12-28T09:22:15;96441.69;;;5.16;100.00
64141;BME280;50436;50.618;7.932;2022-12-28T09:25:01;96438.38;;;5.21;100.00
64141;BME280;50436;50.618;7.932;2022-12-28T09:27:47;96452.31;;;5.16;100.00
64141;BME280;50436;50.618;7.932;2022-12-28T09:30:34;96458.91;;;5.07;100.00
64141;BME280;50436;50.618;7.932;2022-12-28T09:33:20;96456.56;;;5.17;100.00
64141;BME280;50436;50.618;7.932;2022-12-28T09:39:18;96452.13;;;5.11;100.00
64141;BME280;50436;50.618;7.932;2022-12-28T09:42:18;96454.97;;;5.16;100.00
64141;BME280;50436;50.618;7.932;2022-12-28T09:45:10;96452.72;;;5.13;100.00
64141;BME280;50436;50.618;7.932;2022-12-28T09:48:04;96451.97;;;5.06;100.00
64141;BME280;50436;50.618;7.932;2022-12-28T09:50:51;96452.31;;;5.16;100.00
64141;BME280;50436;50.618;7.932;2022-12-28T09:53:37;96460.03;;;5.18;100.00
64141;BME280;50436;50.618;7.932;2022-12-28T09:56:34;96453.22;;;5.28;100.00
64141;BME280;50436;50.618;7.932;2022-12-28T09:59:23;96452.59;;;5.33;100.00
64141;BME280;50436;50.618;7.932;2022-12-28T10:02:31;96450.56;;;5.28;100.00
64141;BME280;50436;50.618;7.932;2022-12-28T10:05:19;96436.94;;;5.25;100.00
64141;BME280;50436;50.618;7.932;2022-12-28T10:08:10;96439.03;;;5.16;100.00
64141;BME280;50436;50.618;7.932;2022-12-28T10:10:59;96431.00;;;5.29;100.00
64141;BME280;50436;50.618;7.932;2022-12-28T10:13:53;96436.31;;;5.29;100.00
64141;BME280;50436;50.618;7.932;2022-12-28T10:16:40;96435.41;;;5.36;100.00
64141;BME280;50436;50.618;7.932;2022-12-28T10:19:27;96426.88;;;5.34;100.00
64141;BME280;50436;50.618;7.932;2022-12-28T10:22:17;96435.31;;;5.49;100.00
64141;BME280;50436;50.618;7.932;2022-12-28T10:25:16;96418.13;;;5.51;100.00
64141;BME280;50436;50.618;7.932;2022-12-28T10:28:06;96418.09;;;5.58;100.00
64141;BME280;50436;50.618;7.932;2022-12-28T10:31:08;96424.06;;;5.53;100.00
64141;BME280;50436;50.618;7.932;2022-12-28T10:33:54;96419.59;;;5.72;100.00
64141;BME280;50436;50.618;7.932;2022-12-28T10:36:40;96418.44;;;5.68;100.00
64141;BME280;50436;50.618;7.932;2022-12-28T10:39:28;96412.53;;;5.84;100.00
64141;BME280;50436;50.618;7.932;2022-12-28T10:42:25;96421.28;;;5.92;100.00
64141;BME280;50436;50.618;7.932;2022-12-28T10:45:17;96405.97;;;5.87;100.00
64141;BME280;50436;50.618;7.932;2022-12-28T10:48:14;96390.44;;;5.91;100.00
64141;BME280;50436;50.618;7.932;2022-12-28T10:53:56;96384.91;;;6.10;100.00
64141;BME280;50436;50.618;7.932;2022-12-28T10:56:48;96382.03;;;6.12;100.00
64141;BME280;50436;50.618;7.932;2022-12-28T10:59:34;96384.97;;;6.04;100.00
64141;BME280;50436;50.618;7.932;2022-12-28T11:02:27;96392.66;;;6.12;100.00
64141;BME280;50436;50.618;7.932;2022-12-28T11:05:20;96373.31;;;6.05;100.00
64141;BME280;50436;50.618;7.932;2022-12-28T11:08:06;96363.66;;;6.10;100.00
64141;BME280;50436;50.618;7.932;2022-12-28T11:10:56;96379.09;;;6.02;100.00
64141;BME280;50436;50.618;7.932;2022-12-28T11:13:44;96372.44;;;6.11;100.00
64141;BME280;50436;50.618;7.932;2022-12-28T11:16:35;96358.84;;;6.19;100.00
64141;BME280;50436;50.618;7.932;2022-12-28T11:19:23;96365.19;;;6.36;100.00
64141;BME280;50436;50.618;7.932;2022-12-28T11:22:11;96354.78;;;6.35;100.00
64141;BME280;50436;50.618;7.932;2022-12-28T11:24:59;96346.41;;;6.50;100.00
64141;BME280;50436;50.618;7.932;2022-12-28T11:27:47;96353.06;;;6.40;100.00
64141;BME280;50436;50.618;7.932;2022-12-28T11:30:33;96336.25;;;6.28;100.00
64141;BME280;50436;50.618;7.932;2022-12-28T11:33:26;96346.16;;;6.21;100.00
64141;BME280;50436;50.618;7.932;2022-12-28T11:36:21;96338.69;;;6.30;100.00
64141;BME280;50436;50.618;7.932;2022-12-28T11:42:14;96320.59;;;6.38;100.00
64141;BME280;50436;50.618;7.932;2022-12-28T11:45:49;96318.38;;;6.35;100.00
64141;BME280;50436;50.618;7.932;2022-12-28T11:51:36;96313.06;;;6.35;100.00
64141;BME280;50436;50.618;7.932;2022-12-28T11:54:34;96324.97;;;6.14;100.00
64141;BME280;50436;50.618;7.932;2022-12-28T11:57:33;96309.41;;;6.18;100.00
64141;BME280;50436;50.618;7.932;2022-12-28T12:03:05;96298.78;;;6.18;100.00
64141;BME280;50436;50.618;7.932;2022-12-28T12:05:51;96315.25;;;6.08;100.00
64141;BME280;50436;50.618;7.932;2022-12-28T12:08:39;96312.94;;;6.12;100.00
64141;BME280;50436;50.618;7.932;2022-12-28T12:14:12;96317.38;;;6.18;100.00
64141;BME280;50436;50.618;7.932;2022-12-28T12:20:02;96300.63;;;6.48;100.00
64141;BME280;50436;50.618;7.932;2022-12-28T12:23:00;96315.94;;;6.34;100.00
64141;BME280;50436;50.618;7.932;2022-12-28T12:25:49;96308.72;;;6.53;100.00
64141;BME280;50436;50.618;7.932;2022-12-28T12:28:51;96319.25;;;6.48;100.00
64141;BME280;50436;50.618;7.932;2022-12-28T12:31:43;96317.38;;;6.18;100.00
64141;BME280;50436;50.618;7.932;2022-12-28T12:37:31;96300.28;;;5.96;100.00
64141;BME280;50436;50.618;7.932;2022-12-28T12:47:10;96291.72;;;5.94;100.00
64141;BME280;50436;50.618;7.932;2022-12-28T12:53:04;96284.94;;;5.98;100.00
64141;BME280;50436;50.618;7.932;2022-12-28T12:56:04;96283.22;;;6.03;100.00
64141;BME280;50436;50.618;7.932;2022-12-28T13:02:26;96268.34;;;6.02;100.00
64141;BME280;50436;50.618;7.932;2022-12-28T13:05:19;96271.66;;;5.98;100.00
64141;BME280;50436;50.618;7.932;2022-12-28T13:08:19;96280.19;;;5.81;100.00
64141;BME280;50436;50.618;7.932;2022-12-28T13:11:10;96276.06;;;5.85;100.00
64141;BME280;50436;50.618;7.932;2022-12-28T13:13:57;96278.88;;;5.91;100.00
64141;BME280;50436;50.618;7.932;2022-12-28T13:16:46;96271.56;;;5.86;100.00
64141;BME280;50436;50.618;7.932;2022-12-28T13:19:32;96267.84;;;5.94;100.00
64141;BME280;50436;50.618;7.932;2022-12-28T13:22:32;96263.09;;;5.77;100.00
64141;BME280;50436;50.618;7.932;2022-12-28T13:25:30;96270.25;;;5.77;100.00
64141;BME280;50436;50.618;7.932;2022-12-28T13:28:21;96265.88;;;5.82;100.00
64141;BME280;50436;50.618;7.932;2022-12-28T13:31:16;96254.09;;;5.78;100.00
64141;BME280;50436;50.618;7.932;2022-12-28T13:36:59;96242.22;;;5.81;100.00
64141;BME280;50436;50.618;7.932;2022-12-28T13:39:46;96236.47;;;5.84;100.00
64141;BME280;50436;50.618;7.932;2022-12-28T13:42:46;96231.97;;;5.84;100.00
64141;BME280;50436;50.618;7.932;2022-12-28T13:45:35;96232.72;;;5.92;100.00
64141;BME280;50436;50.618;7.932;2022-12-28T13:48:22;96219.00;;;5.95;100.00
64141;BME280;50436;50.618;7.932;2022-12-28T13:51:13;96216.97;;;5.90;100.00
64141;BME280;50436;50.618;7.932;2022-12-28T13:54:00;96216.97;;;5.90;100.00
64141;BME280;50436;50.618;7.932;2022-12-28T13:56:47;96208.38;;;5.95;100.00
64141;BME280;50436;50.618;7.932;2022-12-28T13:59:33;96214.41;;;6.02;100.00
64141;BME280;50436;50.618;7.932;2022-12-28T14:02:20;96206.06;;;5.98;100.00
64141;BME280;50436;50.618;7.932;2022-12-28T14:05:14;96214.81;;;5.99;100.00
64141;BME280;50436;50.618;7.932;2022-12-28T14:08:04;96210.56;;;5.98;100.00
64141;BME280;50436;50.618;7.932;2022-12-28T14:10:52;96207.56;;;5.94;100.00
64141;BME280;50436;50.618;7.932;2022-12-28T14:13:39;96214.25;;;5.97;100.00
64141;BME280;50436;50.618;7.932;2022-12-28T14:16:25;96196.25;;;5.99;100.00
64141;BME280;50436;50.618;7.932;2022-12-28T14:19:11;96198.69;;;6.00;100.00
64141;BME280;50436;50.618;7.932;2022-12-28T14:21:57;96186.53;;;5.93;100.00
64141;BME280;50436;50.618;7.932;2022-12-28T14:25:01;96169.97;;;6.09;100.00
64141;BME280;50436;50.618;7.932;2022-12-28T14:28:02;96173.28;;;6.04;100.00
64141;BME280;50436;50.618;7.932;2022-12-28T14:30:54;96162.88;;;6.03;100.00
64141;BME280;50436;50.618;7.932;2022-12-28T14:34:01;96160.47;;;6.01;100.00
64141;BME280;50436;50.618;7.932;2022-12-28T14:36:50;96161.63;;;6.05;100.00
64141;BME280;50436;50.618;7.932;2022-12-28T14:39:41;96165.53;;;6.03;100.00
64141;BME280;50436;50.618;7.932;2022-12-28T14:42:30;96163.84;;;6.08;100.00
64141;BME280;50436;50.618;7.932;2022-12-28T14:45:39;96162.00;;;6.09;100.00
64141;BME280;50436;50.618;7.932;2022-12-28T14:54:26;96139.78;;;6.03;100.00
64141;BME280;50436;50.618;7.932;2022-12-28T15:00:22;96141.31;;;6.11;100.00
64141;BME280;50436;50.618;7.932;2022-12-28T15:03:19;96126.84;;;6.07;100.00
64141;BME280;50436;50.618;7.932;2022-12-28T15:06:05;96127.31;;;6.04;100.00
64141;BME280;50436;50.618;7.932;2022-12-28T15:08:53;96124.78;;;6.09;100.00
64141;BME280;50436;50.618;7.932;2022-12-28T15:11:39;96128.25;;;6.09;100.00
64141;BME280;50436;50.618;7.932;2022-12-28T15:14:25;96116.13;;;6.02;100.00
64141;BME280;50436;50.618;7.932;2022-12-28T15:17:11;96114.03;;;6.04;100.00
64141;BME280;50436;50.618;7.932;2022-12-28T15:19:57;96104.13;;;5.99;100.00
64141;BME280;50436;50.618;7.932;2022-12-28T15:22:43;96101.66;;;5.98;100.00
64141;BME280;50436;50.618;7.932;2022-12-28T15:25:31;96100.84;;;5.97;100.00
64141;BME280;50436;50.618;7.932;2022-12-28T15:28:17;96082.16;;;5.92;100.00
64141;BME280;50436;50.618;7.932;2022-12-28T15:31:08;96086.19;;;5.95;100.00
64141;BME280;50436;50.618;7.932;2022-12-28T15:33:54;96072.97;;;5.88;100.00
64141;BME280;50436;50.618;7.932;2022-12-28T15:36:40;96063.03;;;5.83;100.00
64141;BME280;50436;50.618;7.932;2022-12-28T15:39:29;96059.34;;;5.84;100.00
64141;BME280;50436;50.618;7.932;2022-12-28T15:42:18;96058.31;;;5.85;100.00
64141;BME280;50436;50.618;7.932;2022-12-28T15:45:05;96055.38;;;5.75;100.00
64141;BME280;50436;50.618;7.932;2022-12-28T15:47:52;96040.31;;;5.76;100.00
64141;BME280;50436;50.618;7.932;2022-12-28T15:50:38;96046.19;;;5.78;100.00
64141;BME280;50436;50.618;7.932;2022-12-28T15:53:24;96057.84;;;5.77;100.00
64141;BME280;50436;50.618;7.932;2022-12-28T15:56:30;96054.09;;;5.66;100.00
64141;BME280;50436;50.618;7.932;2022-12-28T15:59:17;96051.81;;;5.70;100.00
64141;BME280;50436;50.618;7.932;2022-12-28T16:02:02;96032.88;;;5.66;100.00
64141;BME280;50436;50.618;7.932;2022-12-28T16:04:48;96025.63;;;5.73;100.00
64141;BME280;50436;50.618;7.932;2022-12-28T16:07:34;96015.94;;;5.79;100.00
64141;BME280;50436;50.618;7.932;2022-12-28T16:10:20;96032.53;;;5.74;100.00